sensor_id;sensor_type;location;lat;lon;timestamp;temperature;humidity
14401;DHT22;7285;50.894;5.462;2023-04-03T00:01:45;1.70;1.00
14401;DHT22;7285;50.894;5.462;2023-04-03T00:04:12;1.60;1.00
14401;DHT22;7285;50.894;5.462;2023-04-03T00:06:40;1.50;25.90
14401;DHT22;7285;50.894;5.462;2023-04-03T00:09:07;1.50;1.00
14401;DHT22;7285;50.894;5.462;2023-04-03T00:11:36;1.40;1.00
14401;DHT22;7285;50.894;5.462;2023-04-03T00:14:03;1.40;99.90
14401;DHT22;7285;50.894;5.462;2023-04-03T00:16:30;1.30;1.00
14401;DHT22;7285;50.894;5.462;2023-04-03T00:18:57;1.20;1.00
14401;DHT22;7285;50.894;5.462;2023-04-03T00:21:24;1.10;99.90
14401;DHT22;7285;50.894;5.462;2023-04-03T00:23:52;1.00;99.90
14401;DHT22;7285;50.894;5.462;2023-04-03T00:26:19;1.00;1.00
14401;DHT22;7285;50.894;5.462;2023-04-03T00:28:46;1.00;59.90
14401;DHT22;7285;50.894;5.462;2023-04-03T00:31:14;0.90;99.90
14401;DHT22;7285;50.894;5.462;2023-04-03T00:33:42;1.00;1.00
14401;DHT22;7285;50.894;5.462;2023-04-03T00:36:10;0.90;5.50
14401;DHT22;7285;50.894;5.462;2023-04-03T00:38:37;0.80;99.90
14401;DHT22;7285;50.894;5.462;2023-04-03T00:41:06;0.90;1.00
14401;DHT22;7285;50.894;5.462;2023-04-03T00:43:33;0.80;1.00
14401;DHT22;7285;50.894;5.462;2023-04-03T00:46:00;0.80;1.00
14401;DHT22;7285;50.894;5.462;2023-04-03T00:48:31;0.80;1.00
14401;DHT22;7285;50.894;5.462;2023-04-03T00:50:59;0.70;1.00
14401;DHT22;7285;50.894;5.462;2023-04-03T00:53:30;0.70;1.00
14401;DHT22;7285;50.894;5.462;2023-04-03T00:55:58;0.60;1.00
14401;DHT22;7285;50.894;5.462;2023-04-03T00:58:32;0.50;1.00
14401;DHT22;7285;50.894;5.462;2023-04-03T01:01:05;0.50;99.90
14401;DHT22;7285;50.894;5.462;2023-04-03T01:03:33;0.50;99.90
14401;DHT22;7285;50.894;5.462;2023-04-03T01:06:00;0.50;1.00
14401;DHT22;7285;50.894;5.462;2023-04-03T01:08:27;0.40;1.00
14401;DHT22;7285;50.894;5.462;2023-04-03T01:10:55;0.40;1.00
14401;DHT22;7285;50.894;5.462;2023-04-03T01:13:24;0.40;1.00
14401;DHT22;7285;50.894;5.462;2023-04-03T01:15:54;0.40;96.00
14401;DHT22;7285;50.894;5.462;2023-04-03T01:18:22;0.30;99.90
14401;DHT22;7285;50.894;5.462;2023-04-03T01:21:20;0.30;1.00
14401;DHT22;7285;50.894;5.462;2023-04-03T01:24:17;0.30;1.00
14401;DHT22;7285;50.894;5.462;2023-04-03T01:26:48;0.30;1.00
14401;DHT22;7285;50.894;5.462;2023-04-03T01:29:15;0.20;1.00
14401;DHT22;7285;50.894;5.462;2023-04-03T01:31:49;0.20;99.90
14401;DHT22;7285;50.894;5.462;2023-04-03T01:34:16;0.10;1.00
14401;DHT22;7285;50.894;5.462;2023-04-03T01:36:43;0.20;1.00
14401;DHT22;7285;50.894;5.462;2023-04-03T01:39:11;0.20;1.00
14401;DHT22;7285;50.894;5.462;2023-04-03T01:41:38;0.20;1.00
14401;DHT22;7285;50.894;5.462;2023-04-03T01:44:05;0.10;99.90
14401;DHT22;7285;50.894;5.462;2023-04-03T01:46:32;0.10;88.60
14401;DHT22;7285;50.894;5.462;2023-04-03T01:49:01;0.00;99.90
14401;DHT22;7285;50.894;5.462;2023-04-03T01:51:28;-0.10;68.70
14401;DHT22;7285;50.894;5.462;2023-04-03T01:53:55;-0.10;99.90
14401;DHT22;7285;50.894;5.462;2023-04-03T01:56:22;-0.20;99.90
14401;DHT22;7285;50.894;5.462;2023-04-03T01:58:49;-0.20;99.90
14401;DHT22;7285;50.894;5.462;2023-04-03T02:01:16;-0.20;99.90
14401;DHT22;7285;50.894;5.462;2023-04-03T02:03:43;-0.20;99.90
14401;DHT22;7285;50.894;5.462;2023-04-03T02:06:11;-0.20;99.90
14401;DHT22;7285;50.894;5.462;2023-04-03T02:08:38;-0.30;1.00
14401;DHT22;7285;50.894;5.462;2023-04-03T02:11:05;-0.10;1.00
14401;DHT22;7285;50.894;5.462;2023-04-03T02:13:32;-0.20;1.00
14401;DHT22;7285;50.894;5.462;2023-04-03T02:16:06;-0.20;1.00
14401;DHT22;7285;50.894;5.462;2023-04-03T02:18:33;-0.20;1.00
14401;DHT22;7285;50.894;5.462;2023-04-03T02:21:00;-0.20;1.00
14401;DHT22;7285;50.894;5.462;2023-04-03T02:23:28;-0.30;1.00
14401;DHT22;7285;50.894;5.462;2023-04-03T02:26:03;-0.30;1.00
14401;DHT22;7285;50.894;5.462;2023-04-03T02:28:31;-0.30;1.70
14401;DHT22;7285;50.894;5.462;2023-04-03T02:30:58;-0.30;23.60
14401;DHT22;7285;50.894;5.462;2023-04-03T02:33:25;-0.40;1.00
14401;DHT22;7285;50.894;5.462;2023-04-03T02:35:53;-0.40;99.90
14401;DHT22;7285;50.894;5.462;2023-04-03T02:38:20;-0.40;99.90
14401;DHT22;7285;50.894;5.462;2023-04-03T02:40:48;-0.40;99.90
14401;DHT22;7285;50.894;5.462;2023-04-03T02:43:16;-0.50;99.90
14401;DHT22;7285;50.894;5.462;2023-04-03T02:45:44;-0.60;99.90
14401;DHT22;7285;50.894;5.462;2023-04-03T02:48:10;-0.50;99.90
14401;DHT22;7285;50.894;5.462;2023-04-03T02:50:37;-0.60;99.90
14401;DHT22;7285;50.894;5.462;2023-04-03T02:53:04;-0.60;1.00
14401;DHT22;7285;50.894;5.462;2023-04-03T02:55:31;-0.50;1.00
14401;DHT22;7285;50.894;5.462;2023-04-03T02:58:00;-0.50;1.00
14401;DHT22;7285;50.894;5.462;2023-04-03T03:00:26;-0.60;1.00
14401;DHT22;7285;50.894;5.462;2023-04-03T03:02:53;-0.60;1.00
14401;DHT22;7285;50.894;5.462;2023-04-03T03:05:20;-0.50;1.00
14401;DHT22;7285;50.894;5.462;2023-04-03T03:07:48;-0.50;1.00
14401;DHT22;7285;50.894;5.462;2023-04-03T03:10:15;-0.60;1.00
14401;DHT22;7285;50.894;5.462;2023-04-03T03:12:42;-0.60;1.00
14401;DHT22;7285;50.894;5.462;2023-04-03T03:15:11;-0.60;1.00
14401;DHT22;7285;50.894;5.462;2023-04-03T03:17:38;-0.50;1.00
14401;DHT22;7285;50.894;5.462;2023-04-03T03:20:06;-0.60;1.00
14401;DHT22;7285;50.894;5.462;2023-04-03T03:22:35;-0.60;1.00
14401;DHT22;7285;50.894;5.462;2023-04-03T03:25:02;-0.60;61.10
14401;DHT22;7285;50.894;5.462;2023-04-03T03:27:29;-0.60;98.80
14401;DHT22;7285;50.894;5.462;2023-04-03T03:29:56;-0.60;99.90
14401;DHT22;7285;50.894;5.462;2023-04-03T03:32:27;-0.60;99.90
14401;DHT22;7285;50.894;5.462;2023-04-03T03:34:54;-0.70;99.90
14401;DHT22;7285;50.894;5.462;2023-04-03T03:37:21;-0.70;99.90
14401;DHT22;7285;50.894;5.462;2023-04-03T03:39:48;-0.70;99.90
14401;DHT22;7285;50.894;5.462;2023-04-03T03:42:15;-0.70;99.90
14401;DHT22;7285;50.894;5.462;2023-04-03T03:44:42;-0.80;99.90
14401;DHT22;7285;50.894;5.462;2023-04-03T03:47:09;-0.80;99.90
14401;DHT22;7285;50.894;5.462;2023-04-03T03:49:38;-0.80;99.90
14401;DHT22;7285;50.894;5.462;2023-04-03T03:52:04;-0.90;99.90
14401;DHT22;7285;50.894;5.462;2023-04-03T03:54:31;-0.90;79.90
14401;DHT22;7285;50.894;5.462;2023-04-03T03:56:58;-0.90;78.50
14401;DHT22;7285;50.894;5.462;2023-04-03T03:59:25;-0.90;12.00
14401;DHT22;7285;50.894;5.462;2023-04-03T04:01:52;-0.90;99.90
14401;DHT22;7285;50.894;5.462;2023-04-03T04:04:19;-1.00;81.80
14401;DHT22;7285;50.894;5.462;2023-04-03T04:06:48;-1.00;36.30
14401;DHT22;7285;50.894;5.462;2023-04-03T04:09:15;-1.00;90.10
14401;DHT22;7285;50.894;5.462;2023-04-03T04:11:42;-0.90;99.90
14401;DHT22;7285;50.894;5.462;2023-04-03T04:14:09;-1.00;99.90
14401;DHT22;7285;50.894;5.462;2023-04-03T04:16:38;-1.00;99.90
14401;DHT22;7285;50.894;5.462;2023-04-03T04:19:04;-1.00;99.90
14401;DHT22;7285;50.894;5.462;2023-04-03T04:21:31;-1.00;99.90
14401;DHT22;7285;50.894;5.462;2023-04-03T04:24:00;-1.10;99.90
14401;DHT22;7285;50.894;5.462;2023-04-03T04:26:27;-1.00;99.90
14401;DHT22;7285;50.894;5.462;2023-04-03T04:28:54;-1.10;99.90
14401;DHT22;7285;50.894;5.462;2023-04-03T04:31:21;-1.20;99.90
14401;DHT22;7285;50.894;5.462;2023-04-03T04:33:47;-1.20;99.90
14401;DHT22;7285;50.894;5.462;2023-04-03T04:36:14;-1.20;99.90
14401;DHT22;7285;50.894;5.462;2023-04-03T04:38:41;-1.20;99.90
14401;DHT22;7285;50.894;5.462;2023-04-03T04:41:10;-1.20;99.90
14401;DHT22;7285;50.894;5.462;2023-04-03T04:43:37;-1.30;99.90
14401;DHT22;7285;50.894;5.462;2023-04-03T04:46:05;-1.30;99.90
14401;DHT22;7285;50.894;5.462;2023-04-03T04:48:32;-1.20;99.90
14401;DHT22;7285;50.894;5.462;2023-04-03T04:50:59;-1.20;99.90
14401;DHT22;7285;50.894;5.462;2023-04-03T04:53:26;-1.30;99.90
14401;DHT22;7285;50.894;5.462;2023-04-03T04:55:53;-1.20;99.90
14401;DHT22;7285;50.894;5.462;2023-04-03T04:58:22;-1.30;99.90
14401;DHT22;7285;50.894;5.462;2023-04-03T05:00:49;-1.30;99.90
14401;DHT22;7285;50.894;5.462;2023-04-03T05:03:16;-1.30;99.90
14401;DHT22;7285;50.894;5.462;2023-04-03T05:05:43;-1.40;99.90
14401;DHT22;7285;50.894;5.462;2023-04-03T05:08:10;-1.40;99.90
14401;DHT22;7285;50.894;5.462;2023-04-03T05:10:38;-1.40;99.90
14401;DHT22;7285;50.894;5.462;2023-04-03T05:13:06;-1.40;99.90
14401;DHT22;7285;50.894;5.462;2023-04-03T05:15:34;-1.30;99.90
14401;DHT22;7285;50.894;5.462;2023-04-03T05:18:01;-1.40;99.90
14401;DHT22;7285;50.894;5.462;2023-04-03T05:20:28;-1.40;99.90
14401;DHT22;7285;50.894;5.462;2023-04-03T05:22:55;-1.40;99.90
14401;DHT22;7285;50.894;5.462;2023-04-03T05:25:22;-1.30;99.90
14401;DHT22;7285;50.894;5.462;2023-04-03T05:27:49;-1.40;99.90
14401;DHT22;7285;50.894;5.462;2023-04-03T05:30:16;-1.30;99.90
14401;DHT22;7285;50.894;5.462;2023-04-03T05:32:45;-1.40;99.90
14401;DHT22;7285;50.894;5.462;2023-04-03T05:35:11;-1.40;99.90
14401;DHT22;7285;50.894;5.462;2023-04-03T05:37:38;-1.40;99.90
14401;DHT22;7285;50.894;5.462;2023-04-03T05:40:07;-1.40;99.90
14401;DHT22;7285;50.894;5.462;2023-04-03T05:42:34;-1.40;99.90
14401;DHT22;7285;50.894;5.462;2023-04-03T05:45:01;-1.30;1.00
14401;DHT22;7285;50.894;5.462;2023-04-03T05:47:28;-1.20;1.00
14401;DHT22;7285;50.894;5.462;2023-04-03T05:49:57;-1.20;1.00
14401;DHT22;7285;50.894;5.462;2023-04-03T05:52:26;-1.00;1.00
14401;DHT22;7285;50.894;5.462;2023-04-03T05:54:53;-0.80;1.00
14401;DHT22;7285;50.894;5.462;2023-04-03T05:57:20;-0.80;1.00
14401;DHT22;7285;50.894;5.462;2023-04-03T05:59:48;-0.50;1.00
14401;DHT22;7285;50.894;5.462;2023-04-03T06:02:17;-0.50;1.00
14401;DHT22;7285;50.894;5.462;2023-04-03T06:04:44;-0.20;1.00
14401;DHT22;7285;50.894;5.462;2023-04-03T06:07:14;-0.20;1.00
14401;DHT22;7285;50.894;5.462;2023-04-03T06:09:42;0.00;1.00
14401;DHT22;7285;50.894;5.462;2023-04-03T06:12:09;0.20;1.00
14401;DHT22;7285;50.894;5.462;2023-04-03T06:14:37;0.30;1.00
14401;DHT22;7285;50.894;5.462;2023-04-03T06:17:04;0.40;1.00
14401;DHT22;7285;50.894;5.462;2023-04-03T06:19:31;0.50;1.00
14401;DHT22;7285;50.894;5.462;2023-04-03T06:21:58;0.70;1.00
14401;DHT22;7285;50.894;5.462;2023-04-03T06:24:27;0.90;1.00
14401;DHT22;7285;50.894;5.462;2023-04-03T06:26:54;0.90;1.00
14401;DHT22;7285;50.894;5.462;2023-04-03T06:29:21;1.00;1.00
14401;DHT22;7285;50.894;5.462;2023-04-03T06:31:49;1.20;1.00
14401;DHT22;7285;50.894;5.462;2023-04-03T06:34:16;1.30;1.00
14401;DHT22;7285;50.894;5.462;2023-04-03T06:36:44;1.40;99.90
14401;DHT22;7285;50.894;5.462;2023-04-03T06:39:14;1.50;99.90
14401;DHT22;7285;50.894;5.462;2023-04-03T06:41:43;1.60;41.90
14401;DHT22;7285;50.894;5.462;2023-04-03T06:44:10;1.80;1.00
14401;DHT22;7285;50.894;5.462;2023-04-03T06:46:38;1.90;99.90
14401;DHT22;7285;50.894;5.462;2023-04-03T06:49:05;2.00;1.00
14401;DHT22;7285;50.894;5.462;2023-04-03T06:51:34;2.10;3.10
14401;DHT22;7285;50.894;5.462;2023-04-03T06:54:02;2.30;99.90
14401;DHT22;7285;50.894;5.462;2023-04-03T06:56:30;2.40;1.00
14401;DHT22;7285;50.894;5.462;2023-04-03T06:58:58;2.50;99.90
14401;DHT22;7285;50.894;5.462;2023-04-03T07:01:27;2.70;1.00
14401;DHT22;7285;50.894;5.462;2023-04-03T07:03:54;2.80;99.90
14401;DHT22;7285;50.894;5.462;2023-04-03T07:06:22;2.90;1.00
14401;DHT22;7285;50.894;5.462;2023-04-03T07:08:49;3.00;99.90
14401;DHT22;7285;50.894;5.462;2023-04-03T07:11:16;3.20;1.00
14401;DHT22;7285;50.894;5.462;2023-04-03T07:13:43;3.20;99.90
14401;DHT22;7285;50.894;5.462;2023-04-03T07:16:12;3.40;99.90
14401;DHT22;7285;50.894;5.462;2023-04-03T07:18:39;3.50;1.00
14401;DHT22;7285;50.894;5.462;2023-04-03T07:21:07;3.60;99.90
14401;DHT22;7285;50.894;5.462;2023-04-03T07:23:34;3.70;99.90
14401;DHT22;7285;50.894;5.462;2023-04-03T07:26:01;3.70;1.00
14401;DHT22;7285;50.894;5.462;2023-04-03T07:28:28;3.80;1.00
14401;DHT22;7285;50.894;5.462;2023-04-03T07:31:00;3.90;1.00
14401;DHT22;7285;50.894;5.462;2023-04-03T07:33:29;4.10;99.90
14401;DHT22;7285;50.894;5.462;2023-04-03T07:35:57;4.20;99.90
14401;DHT22;7285;50.894;5.462;2023-04-03T07:38:24;4.20;1.00
14401;DHT22;7285;50.894;5.462;2023-04-03T07:40:51;4.30;1.00
14401;DHT22;7285;50.894;5.462;2023-04-03T07:43:20;4.40;1.00
14401;DHT22;7285;50.894;5.462;2023-04-03T07:45:48;4.50;99.90
14401;DHT22;7285;50.894;5.462;2023-04-03T07:48:16;4.60;99.90
14401;DHT22;7285;50.894;5.462;2023-04-03T07:50:45;4.70;99.90
14401;DHT22;7285;50.894;5.462;2023-04-03T07:53:12;4.80;99.90
14401;DHT22;7285;50.894;5.462;2023-04-03T07:55:39;4.90;99.90
14401;DHT22;7285;50.894;5.462;2023-04-03T07:58:09;5.00;1.00
14401;DHT22;7285;50.894;5.462;2023-04-03T08:00:37;5.10;1.00
14401;DHT22;7285;50.894;5.462;2023-04-03T08:03:04;5.30;1.00
14401;DHT22;7285;50.894;5.462;2023-04-03T08:05:35;5.50;1.00
14401;DHT22;7285;50.894;5.462;2023-04-03T08:08:04;5.60;1.00
14401;DHT22;7285;50.894;5.462;2023-04-03T08:10:31;5.80;1.00
14401;DHT22;7285;50.894;5.462;2023-04-03T08:12:59;5.80;99.90
14401;DHT22;7285;50.894;5.462;2023-04-03T08:15:26;5.90;99.90
14401;DHT22;7285;50.894;5.462;2023-04-03T08:17:53;6.10;99.90
14401;DHT22;7285;50.894;5.462;2023-04-03T08:20:20;6.20;99.90
14401;DHT22;7285;50.894;5.462;2023-04-03T08:22:47;6.20;99.90
14401;DHT22;7285;50.894;5.462;2023-04-03T08:25:15;6.20;42.50
14401;DHT22;7285;50.894;5.462;2023-04-03T08:27:43;6.40;17.20
14401;DHT22;7285;50.894;5.462;2023-04-03T08:30:11;6.40;1.00
14401;DHT22;7285;50.894;5.462;2023-04-03T08:32:38;6.40;1.00
14401;DHT22;7285;50.894;5.462;2023-04-03T08:35:08;6.70;1.00
14401;DHT22;7285;50.894;5.462;2023-04-03T08:37:35;6.80;1.00
14401;DHT22;7285;50.894;5.462;2023-04-03T08:40:03;7.00;1.00
14401;DHT22;7285;50.894;5.462;2023-04-03T08:42:40;7.20;1.00
14401;DHT22;7285;50.894;5.462;2023-04-03T08:45:12;7.50;1.00
14401;DHT22;7285;50.894;5.462;2023-04-03T08:47:43;7.60;1.00
14401;DHT22;7285;50.894;5.462;2023-04-03T08:50:15;7.60;1.00
14401;DHT22;7285;50.894;5.462;2023-04-03T08:52:45;7.60;1.00
14401;DHT22;7285;50.894;5.462;2023-04-03T08:55:22;7.70;1.00
14401;DHT22;7285;50.894;5.462;2023-04-03T08:57:59;8.00;1.00
14401;DHT22;7285;50.894;5.462;2023-04-03T09:00:28;8.10;1.00
14401;DHT22;7285;50.894;5.462;2023-04-03T09:02:57;8.30;1.00
14401;DHT22;7285;50.894;5.462;2023-04-03T09:05:34;8.30;1.00
14401;DHT22;7285;50.894;5.462;2023-04-03T09:08:09;8.20;1.00
14401;DHT22;7285;50.894;5.462;2023-04-03T09:10:38;8.30;99.90
14401;DHT22;7285;50.894;5.462;2023-04-03T09:13:11;8.50;99.90
14401;DHT22;7285;50.894;5.462;2023-04-03T09:15:40;8.70;99.90
14401;DHT22;7285;50.894;5.462;2023-04-03T09:18:13;8.50;1.00
14401;DHT22;7285;50.894;5.462;2023-04-03T09:20:48;8.60;1.00
14401;DHT22;7285;50.894;5.462;2023-04-03T09:23:21;8.60;1.00
14401;DHT22;7285;50.894;5.462;2023-04-03T09:25:51;8.80;99.90
14401;DHT22;7285;50.894;5.462;2023-04-03T09:28:21;9.00;99.90
14401;DHT22;7285;50.894;5.462;2023-04-03T09:30:48;8.90;99.90
14401;DHT22;7285;50.894;5.462;2023-04-03T09:33:15;9.00;99.90
14401;DHT22;7285;50.894;5.462;2023-04-03T09:35:43;9.10;99.90
14401;DHT22;7285;50.894;5.462;2023-04-03T09:38:21;9.20;99.90
14401;DHT22;7285;50.894;5.462;2023-04-03T09:40:49;9.40;99.90
14401;DHT22;7285;50.894;5.462;2023-04-03T09:43:27;9.50;99.90
14401;DHT22;7285;50.894;5.462;2023-04-03T09:45:55;9.70;99.90
14401;DHT22;7285;50.894;5.462;2023-04-03T09:48:24;9.70;99.90
14401;DHT22;7285;50.894;5.462;2023-04-03T09:51:00;9.50;99.90
14401;DHT22;7285;50.894;5.462;2023-04-03T09:53:34;9.60;89.30
14401;DHT22;7285;50.894;5.462;2023-04-03T09:56:05;10.00;46.70
14401;DHT22;7285;50.894;5.462;2023-04-03T09:58:47;10.20;30.50
14401;DHT22;7285;50.894;5.462;2023-04-03T10:01:26;10.00;9.50
14401;DHT22;7285;50.894;5.462;2023-04-03T10:04:09;10.50;91.10
14401;DHT22;7285;50.894;5.462;2023-04-03T10:06:38;10.80;26.80
14401;DHT22;7285;50.894;5.462;2023-04-03T10:09:17;11.00;14.70
14401;DHT22;7285;50.894;5.462;2023-04-03T10:12:00;11.30;15.20
14401;DHT22;7285;50.894;5.462;2023-04-03T10:14:29;11.10;1.00
14401;DHT22;7285;50.894;5.462;2023-04-03T10:17:01;11.40;1.00
14401;DHT22;7285;50.894;5.462;2023-04-03T10:19:39;11.20;1.00
14401;DHT22;7285;50.894;5.462;2023-04-03T10:22:16;11.20;1.00
14401;DHT22;7285;50.894;5.462;2023-04-03T10:24:52;10.80;1.00
14401;DHT22;7285;50.894;5.462;2023-04-03T10:27:28;11.10;1.00
14401;DHT22;7285;50.894;5.462;2023-04-03T10:30:04;11.10;1.00
14401;DHT22;7285;50.894;5.462;2023-04-03T10:32:46;11.00;1.00
14401;DHT22;7285;50.894;5.462;2023-04-03T10:35:20;11.20;1.00
14401;DHT22;7285;50.894;5.462;2023-04-03T10:38:00;11.30;22.00
14401;DHT22;7285;50.894;5.462;2023-04-03T10:40:30;11.60;1.00
14401;DHT22;7285;50.894;5.462;2023-04-03T10:43:06;12.00;1.00
14401;DHT22;7285;50.894;5.462;2023-04-03T10:45:53;12.00;1.00
14401;DHT22;7285;50.894;5.462;2023-04-03T10:48:40;11.90;1.00
14401;DHT22;7285;50.894;5.462;2023-04-03T10:51:18;11.90;1.00
14401;DHT22;7285;50.894;5.462;2023-04-03T10:53:55;12.00;7.20
14401;DHT22;7285;50.894;5.462;2023-04-03T10:56:31;12.00;1.00
14401;DHT22;7285;50.894;5.462;2023-04-03T10:59:02;12.70;84.10
14401;DHT22;7285;50.894;5.462;2023-04-03T11:01:38;12.50;26.40
14401;DHT22;7285;50.894;5.462;2023-04-03T11:04:07;12.20;95.90
14401;DHT22;7285;50.894;5.462;2023-04-03T11:06:41;12.30;99.90
14401;DHT22;7285;50.894;5.462;2023-04-03T11:09:18;12.50;99.90
14401;DHT22;7285;50.894;5.462;2023-04-03T11:11:47;12.40;99.90
14401;DHT22;7285;50.894;5.462;2023-04-03T11:14:21;13.10;99.90
14401;DHT22;7285;50.894;5.462;2023-04-03T11:16:57;12.70;99.90
14401;DHT22;7285;50.894;5.462;2023-04-03T11:19:34;12.90;99.90
14401;DHT22;7285;50.894;5.462;2023-04-03T11:22:08;12.40;99.90
14401;DHT22;7285;50.894;5.462;2023-04-03T11:24:38;12.50;99.90
14401;DHT22;7285;50.894;5.462;2023-04-03T11:27:13;13.20;59.80
14401;DHT22;7285;50.894;5.462;2023-04-03T11:29:43;13.20;99.90
14401;DHT22;7285;50.894;5.462;2023-04-03T11:32:31;13.50;99.90
14401;DHT22;7285;50.894;5.462;2023-04-03T11:35:02;13.60;99.90
14401;DHT22;7285;50.894;5.462;2023-04-03T11:37:35;13.50;5.30
14401;DHT22;7285;50.894;5.462;2023-04-03T11:40:05;13.70;88.40
14401;DHT22;7285;50.894;5.462;2023-04-03T11:42:37;14.10;3.60
14401;DHT22;7285;50.894;5.462;2023-04-03T11:45:24;14.10;99.90
14401;DHT22;7285;50.894;5.462;2023-04-03T11:47:56;14.30;99.90
14401;DHT22;7285;50.894;5.462;2023-04-03T11:50:42;14.30;47.60
14401;DHT22;7285;50.894;5.462;2023-04-03T11:53:30;13.70;1.00
14401;DHT22;7285;50.894;5.462;2023-04-03T11:56:00;14.30;1.00
14401;DHT22;7285;50.894;5.462;2023-04-03T11:58:29;14.80;66.80
14401;DHT22;7285;50.894;5.462;2023-04-03T12:01:05;14.40;57.60
14401;DHT22;7285;50.894;5.462;2023-04-03T12:07:00;14.20;91.60
14401;DHT22;7285;50.894;5.462;2023-04-03T12:10:15;14.40;1.00
14401;DHT22;7285;50.894;5.462;2023-04-03T12:12:56;13.60;1.00
14401;DHT22;7285;50.894;5.462;2023-04-03T12:15:54;13.80;1.00
14401;DHT22;7285;50.894;5.462;2023-04-03T12:18:59;14.10;1.00
14401;DHT22;7285;50.894;5.462;2023-04-03T12:22:07;14.50;1.00
14401;DHT22;7285;50.894;5.462;2023-04-03T12:24:35;14.00;1.00
14401;DHT22;7285;50.894;5.462;2023-04-03T12:27:34;14.30;1.00
14401;DHT22;7285;50.894;5.462;2023-04-03T12:30:16;14.20;1.00
14401;DHT22;7285;50.894;5.462;2023-04-03T12:32:55;14.00;1.00
14401;DHT22;7285;50.894;5.462;2023-04-03T12:35:28;14.30;1.00
14401;DHT22;7285;50.894;5.462;2023-04-03T12:41:19;14.10;1.00
14401;DHT22;7285;50.894;5.462;2023-04-03T12:43:59;14.20;1.00
14401;DHT22;7285;50.894;5.462;2023-04-03T12:46:36;14.30;1.00
14401;DHT22;7285;50.894;5.462;2023-04-03T12:49:16;13.80;1.00
14401;DHT22;7285;50.894;5.462;2023-04-03T12:51:47;13.80;1.00
14401;DHT22;7285;50.894;5.462;2023-04-03T12:54:19;14.00;1.00
14401;DHT22;7285;50.894;5.462;2023-04-03T12:56:48;13.60;1.00
14401;DHT22;7285;50.894;5.462;2023-04-03T12:59:19;14.20;1.00
14401;DHT22;7285;50.894;5.462;2023-04-03T13:01:53;15.00;1.00
14401;DHT22;7285;50.894;5.462;2023-04-03T13:04:21;15.50;1.00
14401;DHT22;7285;50.894;5.462;2023-04-03T13:06:49;15.00;1.00
14401;DHT22;7285;50.894;5.462;2023-04-03T13:09:24;14.70;1.00
14401;DHT22;7285;50.894;5.462;2023-04-03T13:11:58;15.50;1.00
14401;DHT22;7285;50.894;5.462;2023-04-03T13:14:27;15.60;1.00
14401;DHT22;7285;50.894;5.462;2023-04-03T13:16:55;15.50;1.00
14401;DHT22;7285;50.894;5.462;2023-04-03T13:19:24;15.20;1.00
14401;DHT22;7285;50.894;5.462;2023-04-03T13:21:56;15.30;1.00
14401;DHT22;7285;50.894;5.462;2023-04-03T13:24:25;15.40;1.00
14401;DHT22;7285;50.894;5.462;2023-04-03T13:26:52;15.50;1.00
14401;DHT22;7285;50.894;5.462;2023-04-03T13:29:23;15.40;1.00
14401;DHT22;7285;50.894;5.462;2023-04-03T13:31:53;15.60;1.00
14401;DHT22;7285;50.894;5.462;2023-04-03T13:34:22;15.50;1.00
14401;DHT22;7285;50.894;5.462;2023-04-03T13:36:56;15.00;1.00
14401;DHT22;7285;50.894;5.462;2023-04-03T13:39:27;15.10;1.00
14401;DHT22;7285;50.894;5.462;2023-04-03T13:41:55;15.50;1.00
14401;DHT22;7285;50.894;5.462;2023-04-03T13:44:33;15.20;1.00
14401;DHT22;7285;50.894;5.462;2023-04-03T13:47:15;15.70;1.00
14401;DHT22;7285;50.894;5.462;2023-04-03T13:49:44;15.40;1.00
14401;DHT22;7285;50.894;5.462;2023-04-03T13:52:24;14.80;1.00
14401;DHT22;7285;50.894;5.462;2023-04-03T13:54:56;14.80;1.00
14401;DHT22;7285;50.894;5.462;2023-04-03T13:57:24;14.80;1.00
14401;DHT22;7285;50.894;5.462;2023-04-03T13:59:51;14.90;1.00
14401;DHT22;7285;50.894;5.462;2023-04-03T14:02:22;14.80;1.00
14401;DHT22;7285;50.894;5.462;2023-04-03T14:04:52;14.60;1.00
14401;DHT22;7285;50.894;5.462;2023-04-03T14:07:22;14.50;1.00
14401;DHT22;7285;50.894;5.462;2023-04-03T14:09:49;14.30;1.00
14401;DHT22;7285;50.894;5.462;2023-04-03T14:12:21;14.10;1.00
14401;DHT22;7285;50.894;5.462;2023-04-03T14:14:51;14.60;1.00
14401;DHT22;7285;50.894;5.462;2023-04-03T14:17:21;14.60;1.00
14401;DHT22;7285;50.894;5.462;2023-04-03T14:19:50;14.60;1.00
14401;DHT22;7285;50.894;5.462;2023-04-03T14:22:19;14.80;1.00
14401;DHT22;7285;50.894;5.462;2023-04-03T14:24:47;14.30;1.00
14401;DHT22;7285;50.894;5.462;2023-04-03T14:27:20;14.30;1.00
14401;DHT22;7285;50.894;5.462;2023-04-03T14:29:49;14.10;1.00
14401;DHT22;7285;50.894;5.462;2023-04-03T14:32:17;14.00;1.00
14401;DHT22;7285;50.894;5.462;2023-04-03T14:34:45;14.10;1.00
14401;DHT22;7285;50.894;5.462;2023-04-03T14:37:15;14.20;1.00
14401;DHT22;7285;50.894;5.462;2023-04-03T14:39:43;14.10;1.00
14401;DHT22;7285;50.894;5.462;2023-04-03T14:42:13;14.10;1.00
14401;DHT22;7285;50.894;5.462;2023-04-03T14:44:41;14.20;1.00
14401;DHT22;7285;50.894;5.462;2023-04-03T14:47:10;14.60;1.00
14401;DHT22;7285;50.894;5.462;2023-04-03T14:49:38;14.50;1.00
14401;DHT22;7285;50.894;5.462;2023-04-03T14:52:05;14.50;1.00
14401;DHT22;7285;50.894;5.462;2023-04-03T14:54:32;14.50;1.00
14401;DHT22;7285;50.894;5.462;2023-04-03T14:57:00;14.40;1.00
14401;DHT22;7285;50.894;5.462;2023-04-03T14:59:29;14.30;1.00
14401;DHT22;7285;50.894;5.462;2023-04-03T15:01:58;15.10;1.00
14401;DHT22;7285;50.894;5.462;2023-04-03T15:04:25;14.60;1.00
14401;DHT22;7285;50.894;5.462;2023-04-03T15:06:53;14.60;1.00
14401;DHT22;7285;50.894;5.462;2023-04-03T15:09:22;14.80;1.00
14401;DHT22;7285;50.894;5.462;2023-04-03T15:11:50;15.40;1.00
14401;DHT22;7285;50.894;5.462;2023-04-03T15:14:17;14.60;1.00
14401;DHT22;7285;50.894;5.462;2023-04-03T15:16:44;14.60;1.00
14401;DHT22;7285;50.894;5.462;2023-04-03T15:19:12;14.60;1.00
14401;DHT22;7285;50.894;5.462;2023-04-03T15:21:40;14.90;1.00
14401;DHT22;7285;50.894;5.462;2023-04-03T15:24:08;15.20;1.00
14401;DHT22;7285;50.894;5.462;2023-04-03T15:26:35;15.20;1.00
14401;DHT22;7285;50.894;5.462;2023-04-03T15:29:03;15.00;1.00
14401;DHT22;7285;50.894;5.462;2023-04-03T15:31:31;14.30;1.00
14401;DHT22;7285;50.894;5.462;2023-04-03T15:33:58;14.30;1.00
14401;DHT22;7285;50.894;5.462;2023-04-03T15:36:26;15.00;1.00
14401;DHT22;7285;50.894;5.462;2023-04-03T15:38:53;14.90;1.00
14401;DHT22;7285;50.894;5.462;2023-04-03T15:41:20;14.80;1.00
14401;DHT22;7285;50.894;5.462;2023-04-03T15:43:47;14.30;1.00
14401;DHT22;7285;50.894;5.462;2023-04-03T15:46:14;14.40;1.00
14401;DHT22;7285;50.894;5.462;2023-04-03T15:48:41;15.00;1.00
14401;DHT22;7285;50.894;5.462;2023-04-03T15:51:09;16.00;1.00
14401;DHT22;7285;50.894;5.462;2023-04-03T15:53:37;16.00;1.00
14401;DHT22;7285;50.894;5.462;2023-04-03T15:56:04;16.60;1.00
14401;DHT22;7285;50.894;5.462;2023-04-03T15:58:33;15.80;1.00
14401;DHT22;7285;50.894;5.462;2023-04-03T16:01:00;14.70;1.00
14401;DHT22;7285;50.894;5.462;2023-04-03T16:03:28;15.00;1.00
14401;DHT22;7285;50.894;5.462;2023-04-03T16:05:55;14.80;1.00
14401;DHT22;7285;50.894;5.462;2023-04-03T16:08:22;14.70;1.00
14401;DHT22;7285;50.894;5.462;2023-04-03T16:10:51;14.90;1.00
14401;DHT22;7285;50.894;5.462;2023-04-03T16:13:18;13.10;1.00
14401;DHT22;7285;50.894;5.462;2023-04-03T16:15:45;11.90;1.00
14401;DHT22;7285;50.894;5.462;2023-04-03T16:18:14;11.50;1.00
14401;DHT22;7285;50.894;5.462;2023-04-03T16:20:42;11.40;1.00
14401;DHT22;7285;50.894;5.462;2023-04-03T16:23:09;11.00;1.00
14401;DHT22;7285;50.894;5.462;2023-04-03T16:25:36;10.90;1.00